Terminal Aerodrome Forecast
Issued by NWS

Home | Current Version | Previous Version | Text Only | Print | Product List | Glossary On
Versions: 1 2 3 4 5 6 7 8 9 10 11 12 13 14 15 16 17 18 19 20 21 22 23 24 25 26 27 28
000
FTUS41 KOKX 211307 AAA
TAFGON
TAF AMD
KGON 211307Z 2113/2212 VRB04KT 1/4SM FG OVC003
     FM211400 VRB04KT 1SM -RA BR BKN020
     FM211500 26010KT P6SM SCT080
     FM211700 27015G25KT P6SM SCT080
     FM220000 28008KT P6SM FEW050
     FM220300 VRB03KT P6SM SKC=

USA.gov is the U.S. government's official web portal to all federal, state and local government web resources and services.